Time;durP1;ratioP1;P1;durP2;ratioP2;P2;SDS_P1;SDS_P2;PMS_P1;PMS_P2;Temp;Humidity;BMP_temperature;BMP_pressure;BME280_temperature;BME280_humidity;BME280_pressure;Samples;Min_cycle;Max_cycle;Signal;HPM_P1;HPM_P2
2021/11/19 00:01:55;;;;;;;39.05;6.55;;;;;;;10.65;82.53;99867.66;4965391;29;20165;-69
2021/11/19 00:04:22;;;;;;;35.60;5.65;;;;;;;10.68;82.72;99866.72;4965124;29;20023;-69
2021/11/19 00:06:47;;;;;;;56.38;7.38;;;;;;;10.62;83.14;99865.94;4965247;29;20027;-69
2021/11/19 00:09:13;;;;;;;46.30;8.35;;;;;;;10.73;82.71;99876.16;4964913;29;20046;-69
2021/11/19 00:11:41;;;;;;;38.90;6.32;;;;;;;10.70;83.33;99872.75;4965042;29;20027;-70
2021/11/19 00:14:08;;;;;;;44.05;6.90;;;;;;;10.78;83.24;99876.94;4965345;29;20492;-69
2021/11/19 00:16:35;;;;;;;40.92;6.78;;;;;;;10.71;83.34;99879.66;4964893;29;20135;-70
2021/11/19 00:19:01;;;;;;;35.17;7.03;;;;;;;10.74;83.45;99872.69;4947601;29;20043;-70
2021/11/19 00:21:29;;;;;;;43.80;5.97;;;;;;;10.72;83.56;99869.25;4964969;29;20027;-70
2021/11/19 00:23:54;;;;;;;36.10;7.13;;;;;;;10.72;83.88;99887.41;4964921;29;20031;-70
2021/11/19 00:26:22;;;;;;;40.53;5.97;;;;;;;10.74;83.77;99877.00;4964932;29;20026;-70
2021/11/19 00:28:48;;;;;;;44.17;7.32;;;;;;;10.76;83.83;99868.31;4964786;29;20289;-69
2021/11/19 00:31:14;;;;;;;36.22;7.05;;;;;;;10.78;83.79;99863.09;4964673;29;20027;-70
2021/11/19 00:33:40;;;;;;;32.63;5.82;;;;;;;10.78;83.77;99863.94;4947310;29;20027;-68
2021/11/19 00:36:08;;;;;;;47.00;8.07;;;;;;;10.76;83.57;99881.31;4964651;29;20364;-69
2021/11/19 00:38:35;;;;;;;35.55;6.40;;;;;;;10.80;83.66;99889.88;4964392;29;20050;-68
2021/11/19 00:41:03;;;;;;;36.25;6.75;;;;;;;10.84;83.43;99869.91;4964470;29;20023;-67
2021/11/19 00:43:28;;;;;;;39.40;7.03;;;;;;;10.81;83.72;99886.41;4964614;29;20023;-67
2021/11/19 00:45:54;;;;;;;38.72;7.07;;;;;;;10.80;83.80;99879.50;4964540;29;20026;-68
2021/11/19 00:48:22;;;;;;;31.83;5.85;;;;;;;10.79;83.69;99870.00;4964646;29;20095;-68
2021/11/19 00:50:56;;;;;;;29.80;4.55;;;;;;;10.81;83.76;99873.44;4964354;29;20487;-68
2021/11/19 00:53:23;;;;;;;28.08;5.78;;;;;;;10.85;83.77;99871.63;4964458;29;20027;-67
2021/11/19 00:55:48;;;;;;;38.38;7.03;;;;;;;10.79;84.21;99872.59;4964436;29;20051;-67
2021/11/19 00:58:15;;;;;;;26.75;5.88;;;;;;;10.80;84.04;99863.06;4964495;29;20027;-68
2021/11/19 01:00:48;;;;;;;32.25;8.30;;;;;;;10.82;84.03;99862.16;4964397;29;20104;-68
2021/11/19 01:03:14;;;;;;;45.58;7.10;;;;;;;10.80;84.06;99866.50;4964414;29;20180;-69
2021/11/19 01:05:39;;;;;;;29.48;5.25;;;;;;;10.76;84.27;99857.06;4964638;29;20027;-68
2021/11/19 01:08:06;;;;;;;31.85;5.03;;;;;;;10.78;84.78;99863.09;4962771;29;20020;-69
2021/11/19 01:10:34;;;;;;;35.92;4.72;;;;;;;10.87;84.08;99875.06;4966034;28;20051;-68
2021/11/19 01:13:00;;;;;;;35.58;4.63;;;;;;;10.82;84.42;99858.69;4951102;29;20034;-67
2021/11/19 01:15:40;;;;;;;26.25;4.43;;;;;;;10.82;84.46;99849.16;4968437;29;20023;-68
2021/11/19 01:18:13;;;;;;;33.72;4.80;;;;;;;10.78;85.04;99853.56;4968199;29;20062;-69
2021/11/19 01:20:58;;;;;;;32.45;5.80;;;;;;;10.78;85.16;99848.34;4968178;29;20023;-69
2021/11/19 01:23:26;;;;;;;30.45;5.35;;;;;;;10.85;84.68;99856.91;4968209;29;20058;-68
2021/11/19 01:25:56;;;;;;;27.90;5.50;;;;;;;10.83;84.82;99853.47;4968064;29;20106;-68
2021/11/19 01:28:23;;;;;;;37.53;5.03;;;;;;;10.80;85.09;99850.09;4968464;29;20034;-69
2021/11/19 01:30:53;;;;;;;28.30;4.88;;;;;;;10.75;85.17;99839.78;4968014;29;20038;-68
2021/11/19 01:33:18;;;;;;;36.83;4.22;;;;;;;10.80;85.22;99843.13;4967823;29;20047;-68
2021/11/19 01:35:45;;;;;;;37.28;5.30;;;;;;;10.85;85.18;99838.72;4968007;29;20047;-69
2021/11/19 01:38:11;;;;;;;23.13;4.45;;;;;;;10.86;84.92;99834.41;4967806;29;20023;-69
2021/11/19 01:40:41;;;;;;;29.60;4.10;;;;;;;10.90;84.73;99829.13;4967655;29;20059;-68
2021/11/19 01:43:10;;;;;;;21.55;3.70;;;;;;;10.80;85.66;99809.38;4967813;29;20035;-69
2021/11/19 01:45:43;;;;;;;25.75;5.45;;;;;;;10.75;86.11;99812.06;4967605;29;20472;-69
2021/11/19 01:48:12;;;;;;;24.80;4.97;;;;;;;10.78;86.08;99821.56;4967714;29;20505;-69
2021/11/19 01:50:48;;;;;;;15.75;3.03;;;;;;;10.73;86.80;99810.41;4967481;29;20058;-68
2021/11/19 01:53:26;;;;;;;19.70;2.55;;;;;;;10.66;87.16;99797.53;4967632;29;20058;-69
2021/11/19 01:56:26;;;;;;;15.93;2.30;;;;;;;10.62;87.76;99803.66;4967482;29;20030;-69
2021/11/19 01:58:55;;;;;;;15.88;3.40;;;;;;;10.61;88.31;99799.34;4967735;29;20091;-69
2021/11/19 02:01:28;;;;;;;19.90;2.80;;;;;;;10.63;88.46;99792.41;4967531;29;20077;-69
2021/11/19 02:04:00;;;;;;;12.40;2.85;;;;;;;10.65;88.73;99801.00;4967438;29;20023;-69
2021/11/19 02:06:30;;;;;;;17.97;2.90;;;;;;;10.62;89.06;99782.88;4967604;29;20028;-69
2021/11/19 02:08:57;;;;;;;17.85;2.70;;;;;;;10.66;89.01;99789.75;4967422;29;20086;-68
2021/11/19 02:11:50;;;;;;;18.73;2.67;;;;;;;10.66;89.65;99794.06;4967516;29;20031;-67
2021/11/19 02:14:40;;;;;;;14.43;2.63;;;;;;;10.63;89.39;99796.72;4967421;29;20023;-68
2021/11/19 02:17:08;;;;;;;16.70;3.00;;;;;;;10.69;89.60;99803.56;4967112;29;20495;-67
2021/11/19 02:19:39;;;;;;;17.17;2.97;;;;;;;10.63;89.71;99794.13;4966975;29;20035;-67
2021/11/19 02:22:14;;;;;;;22.52;3.40;;;;;;;10.68;89.73;99800.09;4966361;28;20073;-68
2021/11/19 02:24:43;;;;;;;42.15;4.22;;;;;;;10.70;89.99;99789.69;4967152;29;20035;-68
2021/11/19 02:27:16;;;;;;;24.33;2.97;;;;;;;10.76;89.90;99789.56;4967037;29;20035;-69
2021/11/19 02:29:50;;;;;;;29.33;4.22;;;;;;;10.74;90.01;99784.41;4966908;29;20090;-68
2021/11/19 02:32:20;;;;;;;30.73;4.57;;;;;;;10.73;90.10;99785.31;4967083;29;20027;-68
2021/11/19 02:34:46;;;;;;;19.83;3.28;;;;;;;10.72;90.63;99765.41;4966743;29;20027;-68
2021/11/19 02:37:26;;;;;;;20.30;2.90;;;;;;;10.79;90.71;99773.94;4967063;29;20063;-68
2021/11/19 02:39:56;;;;;;;18.50;3.67;;;;;;;10.80;90.48;99754.84;4966883;29;20027;-68
2021/11/19 02:42:28;;;;;;;24.60;3.67;;;;;;;10.78;90.85;99743.66;4966980;29;20062;-68
2021/11/19 02:44:55;;;;;;;;;;;;;;;10.85;90.82;99759.97;4967230;29;20027;-68
2021/11/19 02:47:24;;;;;;;18.30;3.30;;;;;;;10.82;91.06;99773.88;4966759;29;19934;-68
2021/11/19 02:49:50;;;;;;;25.13;3.47;;;;;;;10.78;91.15;99748.88;4949169;29;20030;-68
2021/11/19 02:52:20;;;;;;;17.95;2.88;;;;;;;10.85;91.19;99734.00;4966692;29;20033;-68
2021/11/19 02:54:46;;;;;;;17.60;3.00;;;;;;;10.84;91.11;99722.78;4966567;29;20031;-68
2021/11/19 02:57:12;;;;;;;27.13;4.05;;;;;;;10.87;91.02;99737.41;4966663;29;20071;-68
2021/11/19 02:59:38;;;;;;;14.68;2.67;;;;;;;10.88;91.25;99745.19;4949218;29;20086;-68
2021/11/19 03:02:09;;;;;;;9.27;2.05;;;;;;;10.94;91.18;99749.41;4966470;29;20035;-68
2021/11/19 03:04:41;;;;;;;21.58;3.28;;;;;;;10.90;91.41;99735.63;4966234;29;20162;-69
2021/11/19 03:07:07;;;;;;;28.38;5.07;;;;;;;10.99;90.72;99734.56;4966334;29;20453;-69
2021/11/19 03:09:39;;;;;;;20.45;3.40;;;;;;;10.93;91.12;99732.09;4966413;29;20027;-69
2021/11/19 03:12:06;;;;;;;16.42;3.00;;;;;;;10.94;91.34;99738.16;4966219;29;20500;-69
2021/11/19 03:14:32;;;;;;;29.10;4.40;;;;;;;10.94;91.31;99736.44;4966066;29;20028;-69
2021/11/19 03:16:59;;;;;;;27.60;4.45;;;;;;;10.97;91.09;99741.56;4965948;29;20121;-69
2021/11/19 03:19:25;;;;;;;29.67;4.97;;;;;;;10.97;91.34;99740.69;4965918;29;20091;-69
2021/11/19 03:21:51;;;;;;;36.15;4.40;;;;;;;11.08;90.67;99749.13;4965997;29;20122;-69
2021/11/19 03:24:18;;;;;;;28.30;4.72;;;;;;;11.02;90.82;99744.88;4966009;29;20094;-69
2021/11/19 03:26:45;;;;;;;27.83;4.70;;;;;;;11.03;90.63;99707.66;4965864;29;20082;-68
2021/11/19 03:29:11;;;;;;;15.93;3.55;;;;;;;11.11;90.54;99717.88;4966225;29;20034;-68
2021/11/19 03:31:38;;;;;;;29.58;4.65;;;;;;;11.07;90.73;99718.81;4965707;29;20050;-68
2021/11/19 03:34:07;;;;;;;25.80;5.38;;;;;;;10.97;91.05;99712.97;4965528;28;20027;-68
2021/11/19 03:36:33;;;;;;;52.78;8.05;;;;;;;11.04;90.91;99721.47;4965923;29;20023;-67
2021/11/19 03:39:00;;;;;;;31.58;5.93;;;;;;;11.07;91.07;99731.81;4965628;29;20051;-68
2021/11/19 03:41:28;;;;;;;43.22;6.20;;;;;;;11.08;90.85;99689.38;4948323;29;20027;-68
2021/11/19 03:44:17;;;;;;;33.67;4.50;;;;;;;11.02;91.00;99690.34;4965683;29;20030;-67
2021/11/19 03:46:56;;;;;;;33.80;6.88;;;;;;;11.06;90.69;99706.72;4965747;29;20061;-69
2021/11/19 03:49:22;;;;;;;19.77;4.25;;;;;;;11.07;90.75;99708.41;4965328;29;20092;-68
2021/11/19 03:51:54;;;;;;;29.10;5.50;;;;;;;11.08;90.66;99694.56;4965453;29;20051;-69
2021/11/19 03:54:22;;;;;;;32.90;6.10;;;;;;;11.08;90.47;99694.56;4965376;29;20031;-69
2021/11/19 03:56:49;;;;;;;40.92;6.13;;;;;;;11.06;90.85;99685.06;4965512;29;20373;-69
2021/11/19 03:59:15;;;;;;;29.15;5.22;;;;;;;11.04;90.75;99682.50;4965436;29;20031;-67
2021/11/19 04:01:44;;;;;;;45.63;6.15;;;;;;;11.01;90.66;99678.25;4965257;29;20063;-67
2021/11/19 04:04:12;;;;;;;41.08;7.45;;;;;;;11.05;90.49;99681.66;4965156;29;20484;-68
2021/11/19 04:06:39;;;;;;;28.02;4.25;;;;;;;11.08;90.80;99681.56;4965350;29;20027;-69
2021/11/19 04:09:06;;;;;;;34.15;5.80;;;;;;;11.05;90.81;99685.97;4965062;29;20030;-67
2021/11/19 04:11:31;;;;;;;46.33;6.93;;;;;;;11.12;90.47;99700.53;4965085;29;20031;-67
2021/11/19 04:13:57;;;;;;;37.00;6.00;;;;;;;11.06;90.83;99693.72;4965178;29;20041;-67
2021/11/19 04:16:28;;;;;;;40.40;5.78;;;;;;;11.06;90.94;99693.72;4964681;29;20035;-67
2021/11/19 04:18:53;;;;;;;52.38;7.68;;;;;;;11.14;90.91;99701.34;4964910;29;20050;-68
2021/11/19 04:21:20;;;;;;;41.92;6.15;;;;;;;11.17;90.76;99705.66;4964809;29;20043;-68
2021/11/19 04:23:48;;;;;;;42.08;5.75;;;;;;;11.13;90.69;99697.91;4947666;29;20019;-68
2021/11/19 04:26:13;;;;;;;44.22;6.05;;;;;;;11.14;90.42;99693.56;4964998;29;20034;-67
2021/11/19 04:28:39;;;;;;;53.70;6.97;;;;;;;11.12;90.47;99701.38;4964910;29;20054;-67
2021/11/19 04:31:05;;;;;;;38.17;6.75;;;;;;;11.16;90.61;99702.19;4964758;29;20065;-67
2021/11/19 04:33:31;;;;;;;45.67;6.20;;;;;;;11.11;90.43;99685.84;4964761;29;20442;-68
2021/11/19 04:35:57;;;;;;;36.33;6.30;;;;;;;11.19;90.29;99698.66;4964860;29;20024;-67
2021/11/19 04:38:24;;;;;;;36.30;5.10;;;;;;;11.11;90.46;99696.22;4964768;29;20484;-67
2021/11/19 04:40:51;;;;;;;42.80;5.35;;;;;;;11.19;90.22;99703.84;4964720;29;20075;-67
2021/11/19 04:43:16;;;;;;;37.42;6.38;;;;;;;11.14;90.17;99710.00;4947435;29;20024;-68
2021/11/19 04:45:42;;;;;;;48.42;7.10;;;;;;;11.14;90.06;99715.22;4964132;28;20042;-67
2021/11/19 04:48:08;;;;;;;47.58;7.22;;;;;;;11.16;90.14;99712.56;4964522;29;20132;-67
2021/11/19 04:50:39;;;;;;;50.97;8.23;;;;;;;11.14;90.14;99723.00;4964721;29;20523;-68
2021/11/19 04:53:06;;;;;;;61.35;8.23;;;;;;;11.15;90.37;99724.69;4964637;29;20031;-68
2021/11/19 04:55:32;;;;;;;42.42;8.05;;;;;;;11.13;90.74;99717.84;4964546;29;20038;-67
2021/11/19 04:57:58;;;;;;;54.50;8.35;;;;;;;11.18;90.12;99704.75;4964858;29;20031;-67
2021/11/19 05:00:36;;;;;;;46.85;6.25;;;;;;;11.15;90.26;99700.47;4964584;29;20046;-69
2021/11/19 05:03:03;;;;;;;46.67;6.65;;;;;;;11.15;90.34;99690.94;4964497;29;20333;-67
2021/11/19 05:05:28;;;;;;;56.85;7.85;;;;;;;11.13;90.38;99691.88;4964488;29;20023;-68
2021/11/19 05:07:54;;;;;;;48.60;7.65;;;;;;;11.11;90.40;99691.91;4964493;29;20019;-69
2021/11/19 05:10:19;;;;;;;53.35;8.43;;;;;;;11.13;90.48;99697.91;4964537;29;20031;-69
2021/11/19 05:12:49;;;;;;;39.20;6.80;;;;;;;11.19;90.18;99703.84;4964768;29;20043;-69
2021/11/19 05:15:15;;;;;;;42.30;6.30;;;;;;;11.18;90.36;99704.75;4964344;29;20090;-69
2021/11/19 05:17:41;;;;;;;37.95;6.28;;;;;;;11.19;90.31;99699.53;4964188;29;20056;-73
2021/11/19 05:20:09;;;;;;;43.25;7.70;;;;;;;11.15;90.74;99706.53;4964326;29;20134;-69
2021/11/19 05:22:34;;;;;;;49.78;7.70;;;;;;;11.14;90.49;99704.81;4964341;29;20027;-72
2021/11/19 05:25:00;;;;;;;43.80;7.63;;;;;;;11.23;90.25;99710.72;4964564;29;20069;-71
2021/11/19 05:27:26;;;;;;;55.42;7.43;;;;;;;11.19;90.38;99717.72;4964420;29;20043;-70
2021/11/19 05:29:51;;;;;;;37.50;6.68;;;;;;;11.22;90.39;99701.19;4964402;29;20037;-71
2021/11/19 05:32:17;;;;;;;55.63;7.63;;;;;;;11.26;90.33;99692.44;4964486;29;20051;-70
2021/11/19 05:34:43;;;;;;;47.47;7.03;;;;;;;11.26;90.50;99713.22;4964418;29;20031;-70
2021/11/19 05:37:10;;;;;;;36.28;6.40;;;;;;;11.25;90.54;99695.91;4964354;29;20047;-71
2021/11/19 05:39:36;;;;;;;49.17;7.70;;;;;;;11.30;90.50;99714.88;4964584;29;20023;-71
2021/11/19 05:42:04;;;;;;;48.55;7.63;;;;;;;11.32;90.40;99707.91;4964193;29;20019;-70
2021/11/19 05:44:31;;;;;;;39.40;6.50;;;;;;;11.30;90.30;99703.59;4964191;29;20028;-72
2021/11/19 05:46:57;;;;;;;40.33;6.65;;;;;;;11.36;90.03;99704.31;4964217;29;20116;-68
2021/11/19 05:49:23;;;;;;;48.13;7.43;;;;;;;11.32;90.01;99697.50;4963933;29;20055;-69
2021/11/19 05:51:53;;;;;;;49.65;8.45;;;;;;;11.36;90.35;99686.13;4964254;29;20030;-69
2021/11/19 05:54:21;;;;;;;39.45;6.15;;;;;;;11.38;90.00;99681.75;4963681;29;20031;-69
2021/11/19 05:56:47;;;;;;;58.30;8.40;;;;;;;11.40;89.94;99690.38;4966297;28;20027;-69
2021/11/19 05:59:13;;;;;;;43.92;7.43;;;;;;;11.43;89.70;99704.19;4967686;29;20031;-69
2021/11/19 06:01:39;;;;;;;52.28;9.10;;;;;;;11.42;89.42;99692.09;4967911;29;20144;-69
2021/11/19 06:04:05;;;;;;;60.80;8.88;;;;;;;11.48;89.59;99691.94;4967629;29;20027;-69
2021/11/19 06:06:30;;;;;;;56.53;8.70;;;;;;;11.47;89.06;99685.88;4967946;29;20098;-69
2021/11/19 06:09:00;;;;;;;59.33;9.20;;;;;;;11.49;89.27;99699.69;4967775;29;20066;-69
2021/11/19 06:11:33;;;;;;;46.63;7.82;;;;;;;11.54;89.25;99702.19;4967485;29;20027;-68
2021/11/19 06:14:13;;;;;;;54.28;8.68;;;;;;;11.55;88.74;99696.09;4967778;29;20038;-68
2021/11/19 06:16:43;;;;;;;33.80;6.70;;;;;;;11.58;88.86;99706.41;4967396;29;20062;-69
2021/11/19 06:19:13;;;;;;;60.20;10.68;;;;;;;11.55;88.58;99709.09;4967372;29;20019;-69
2021/11/19 06:21:45;;;;;;;47.55;8.15;;;;;;;11.57;88.20;99702.13;4950119;29;20047;-69
2021/11/19 06:24:17;;;;;;;51.13;9.10;;;;;;;11.59;88.00;99709.88;4967518;29;20487;-68
2021/11/19 06:26:45;;;;;;;56.60;8.35;;;;;;;11.51;87.94;99694.47;4950195;29;20030;-68
2021/11/19 06:29:12;;;;;;;40.58;8.77;;;;;;;11.52;87.91;99703.97;4967530;29;20031;-69
2021/11/19 06:31:42;;;;;;;40.28;7.82;;;;;;;11.50;87.47;99687.56;4967625;29;20471;-69
2021/11/19 06:34:08;;;;;;;60.78;8.50;;;;;;;11.49;87.53;99683.25;4967354;29;20057;-69
2021/11/19 06:36:34;;;;;;;55.80;7.45;;;;;;;11.49;87.78;99686.69;4966167;29;20484;-67
2021/11/19 06:39:01;;;;;;;52.72;8.35;;;;;;;11.50;87.71;99695.38;4967324;29;20411;-67
2021/11/19 06:41:27;;;;;;;66.28;8.57;;;;;;;11.48;87.77;99684.13;4949800;29;20027;-68
2021/11/19 06:43:53;;;;;;;51.40;7.40;;;;;;;11.50;87.55;99693.59;4967408;29;20066;-69
2021/11/19 06:46:20;;;;;;;58.85;8.05;;;;;;;11.51;87.60;99697.06;4967482;29;20066;-69
2021/11/19 06:48:47;;;;;;;42.17;8.45;;;;;;;11.51;87.33;99699.66;4966980;29;20027;-68
2021/11/19 06:51:13;;;;;;;27.63;4.07;;;;;;;11.56;87.20;99705.63;4966956;29;20116;-68
2021/11/19 06:53:39;;;;;;;43.85;7.75;;;;;;;11.55;87.14;99700.44;4966973;29;20050;-69
2021/11/19 06:56:05;;;;;;;47.17;7.45;;;;;;;11.53;87.19;99710.88;4967118;29;20024;-69
2021/11/19 06:58:30;;;;;;;45.50;7.97;;;;;;;11.50;87.28;99711.78;4967181;29;20245;-69
2021/11/19 07:00:57;;;;;;;58.05;8.43;;;;;;;11.54;87.18;99691.78;4966954;29;20023;-70
2021/11/19 07:03:24;;;;;;;42.13;6.95;;;;;;;11.48;87.35;99703.19;4966642;29;20016;-70
2021/11/19 07:05:50;;;;;;;46.03;7.97;;;;;;;11.48;87.15;99708.41;4967090;29;20015;-69
2021/11/19 07:08:15;;;;;;;42.05;6.78;;;;;;;11.49;86.88;99701.44;4966478;28;20031;-69
2021/11/19 07:10:44;;;;;;;48.47;8.00;;;;;;;11.44;87.00;99685.13;4966545;29;20038;-69
2021/11/19 07:13:11;;;;;;;54.45;7.28;;;;;;;11.41;87.02;99688.63;4966772;29;20089;-68
2021/11/19 07:15:37;;;;;;;35.08;7.07;;;;;;;11.38;86.97;99679.16;4966590;29;20540;-69
2021/11/19 07:18:03;;;;;;;48.85;8.43;;;;;;;11.39;86.77;99677.41;4966664;29;20106;-69
2021/11/19 07:20:38;;;;;;;59.10;8.95;;;;;;;11.30;87.21;99688.88;4966651;29;20512;-69
2021/11/19 07:23:04;;;;;;;35.95;6.10;;;;;;;11.31;86.97;99679.34;4966589;29;20035;-68
2021/11/19 07:25:31;;;;;;;20.25;4.22;;;;;;;11.34;87.14;99685.31;4966482;29;20027;-69
2021/11/19 07:27:59;;;;;;;42.67;7.93;;;;;;;11.30;87.30;99695.81;4966619;29;20024;-69
2021/11/19 07:30:29;;;;;;;43.47;6.45;;;;;;;11.33;87.21;99690.53;4966382;29;20086;-68
2021/11/19 07:32:54;;;;;;;37.03;6.40;;;;;;;11.32;87.31;99692.31;4966436;29;20027;-69
2021/11/19 07:35:21;;;;;;;47.13;8.93;;;;;;;11.37;87.26;99693.03;4966259;29;20062;-68
2021/11/19 07:37:47;;;;;;;31.83;5.35;;;;;;;11.31;87.17;99689.75;4966363;29;20031;-69
2021/11/19 07:40:14;;;;;;;38.53;8.23;;;;;;;11.39;87.12;99698.19;4966221;29;20028;-69
2021/11/19 07:42:40;;;;;;;41.40;6.93;;;;;;;11.41;87.14;99699.03;4948770;29;20106;-69
2021/11/19 07:45:08;;;;;;;42.10;6.70;;;;;;;11.40;86.78;99708.59;4964832;29;20023;-68
2021/11/19 07:47:34;;;;;;;48.83;6.57;;;;;;;11.45;86.72;99708.47;4966381;29;20078;-69
2021/11/19 07:49:59;;;;;;;34.22;7.25;;;;;;;11.49;86.81;99709.22;4966157;29;20027;-68
2021/11/19 07:52:25;;;;;;;39.67;6.10;;;;;;;11.52;86.58;99707.41;4965866;29;20054;-68
2021/11/19 07:54:51;;;;;;;24.70;5.93;;;;;;;11.54;86.45;99717.78;4965799;29;20027;-68
2021/11/19 07:57:16;;;;;;;40.83;7.00;;;;;;;11.48;86.30;99699.75;4965986;29;20038;-68
2021/11/19 07:59:41;;;;;;;37.22;7.82;;;;;;;11.52;86.17;99710.03;4964527;29;20111;-68
2021/11/19 08:02:07;;;;;;;37.67;6.15;;;;;;;11.50;86.08;99705.75;4965785;29;20028;-69
2021/11/19 08:04:34;;;;;;;40.83;7.50;;;;;;;11.45;86.03;99703.28;4965726;29;20347;-69
2021/11/19 08:07:01;;;;;;;31.58;5.07;;;;;;;11.47;86.09;99706.66;4965872;29;20110;-69
2021/11/19 08:09:27;;;;;;;38.58;6.97;;;;;;;11.52;85.91;99714.34;4965883;29;20035;-69
2021/11/19 08:11:53;;;;;;;43.83;6.15;;;;;;;11.52;85.91;99715.22;4965588;29;20037;-69
2021/11/19 08:14:19;;;;;;;51.88;8.60;;;;;;;11.53;85.79;99710.88;4965826;29;20063;-69
2021/11/19 08:16:49;;;;;;;53.03;7.93;;;;;;;11.52;85.85;99719.56;4948996;29;20102;-68
2021/11/19 08:19:21;;;;;;;40.05;8.05;;;;;;;11.50;85.85;99714.38;4965217;28;20383;-69
2021/11/19 08:21:47;;;;;;;;;;;;;;;11.55;85.80;99719.47;4965894;29;20034;-69
2021/11/19 08:24:13;;;;;;;40.22;5.63;;;;;;;11.56;85.74;99716.00;4965626;29;19938;-69
2021/11/19 08:26:43;;;;;;;36.92;8.60;;;;;;;11.53;85.64;99722.13;4965512;29;20054;-69
2021/11/19 08:29:19;;;;;;;53.85;9.13;;;;;;;11.51;85.93;99736.06;4965754;29;20307;-69
2021/11/19 08:31:45;;;;;;;44.45;8.15;;;;;;;11.49;85.96;99719.63;4965475;29;20019;-70
2021/11/19 08:34:14;;;;;;;53.78;8.65;;;;;;;11.57;85.79;99740.25;4965568;29;20031;-67
2021/11/19 08:36:39;;;;;;;57.85;8.32;;;;;;;11.59;85.72;99752.34;4965966;29;20031;-67
2021/11/19 08:39:07;;;;;;;53.83;10.10;;;;;;;11.68;85.33;99746.06;4965601;29;20023;-68
2021/11/19 08:41:34;;;;;;;39.25;7.43;;;;;;;11.63;85.65;99733.16;4965640;29;20113;-68
2021/11/19 08:44:00;;;;;;;51.15;10.27;;;;;;;11.66;85.55;99732.25;4965465;29;20031;-69
2021/11/19 08:46:32;;;;;;;61.60;9.73;;;;;;;11.64;85.36;99724.50;4965417;29;20074;-69
2021/11/19 08:49:01;;;;;;;69.75;9.85;;;;;;;11.68;85.30;99730.44;4965173;29;20062;-68
2021/11/19 08:51:30;;;;;;;53.97;9.00;;;;;;;11.71;85.11;99719.13;4965161;29;20135;-69
2021/11/19 08:53:58;;;;;;;54.40;9.15;;;;;;;11.73;85.31;99717.34;4965087;29;20034;-69
2021/11/19 08:56:25;;;;;;;70.05;11.48;;;;;;;11.73;85.22;99726.00;4965100;29;20460;-69
2021/11/19 08:58:50;;;;;;;58.67;10.40;;;;;;;11.81;84.94;99725.81;4948101;29;20027;-69
2021/11/19 09:01:18;;;;;;;65.15;9.52;;;;;;;11.78;84.91;99715.47;4964865;29;20031;-69
2021/11/19 09:03:44;;;;;;;53.25;9.63;;;;;;;11.84;84.53;99704.94;4965029;29;20055;-68
2021/11/19 09:06:12;;;;;;;52.50;8.90;;;;;;;11.90;84.47;99716.94;4964955;29;20507;-68
2021/11/19 09:08:39;;;;;;;57.47;9.52;;;;;;;11.87;84.40;99730.00;4964896;29;20035;-67
2021/11/19 09:11:07;;;;;;;40.83;7.80;;;;;;;11.84;84.29;99725.72;4964577;29;20046;-68
2021/11/19 09:13:33;;;;;;;52.65;9.30;;;;;;;11.81;84.43;99724.94;4964976;29;20047;-68
2021/11/19 09:16:00;;;;;;;59.25;9.27;;;;;;;11.80;84.17;99731.91;4963348;29;20023;-69
2021/11/19 09:18:28;;;;;;;38.25;9.10;;;;;;;11.80;84.32;99728.44;4964554;29;20042;-69
2021/11/19 09:21:05;;;;;;;58.00;8.25;;;;;;;11.82;84.10;99721.47;4963432;29;20031;-69
2021/11/19 09:23:38;;;;;;;63.35;10.27;;;;;;;11.82;84.28;99706.69;4964721;29;20030;-69
2021/11/19 09:26:10;;;;;;;54.53;10.40;;;;;;;11.96;84.20;99697.72;4964868;29;20027;-69
2021/11/19 09:28:39;;;;;;;58.95;9.52;;;;;;;11.97;83.87;99720.22;4965322;29;20102;-69
2021/11/19 09:31:07;;;;;;;51.03;7.63;;;;;;;11.99;84.18;99723.66;4948153;29;20027;-69
2021/11/19 09:33:35;;;;;;;44.25;6.80;;;;;;;12.02;83.81;99726.16;4968352;29;20106;-69
2021/11/19 09:36:01;;;;;;;42.97;9.38;;;;;;;12.02;83.71;99713.16;4968379;29;20019;-69
2021/11/19 09:38:28;;;;;;;36.97;5.95;;;;;;;12.06;83.33;99717.38;4968242;29;20502;-69
2021/11/19 09:41:36;;;;;;;27.85;6.05;;;;;;;12.16;83.44;99696.38;4968275;29;20372;-70
2021/11/19 09:44:23;;;;;;;47.08;7.72;;;;;;;12.46;83.13;99688.63;4967934;29;20638;-69
2021/11/19 09:47:15;;;;;;;45.22;8.00;;;;;;;13.08;82.27;99678.16;4967088;28;20170;-70
2021/11/19 09:50:05;;;;;;;50.15;8.93;;;;;;;13.50;80.40;99666.41;4937993;29;20226;-71
2021/11/19 09:52:49;;;;;;;40.28;7.00;;;;;;;13.93;77.96;99655.50;4967960;29;20027;-70
2021/11/19 09:55:41;;;;;;;35.03;7.00;;;;;;;13.95;76.22;99638.88;4966619;29;20043;-70
2021/11/19 09:58:35;;;;;;;35.50;7.65;;;;;;;13.38;75.73;99633.78;4966892;29;20037;-71
2021/11/19 10:01:21;;;;;;;42.10;7.88;;;;;;;12.98;76.83;99626.34;4967915;29;20515;-70
2021/11/19 10:04:15;;;;;;;53.58;8.02;;;;;;;12.64;77.88;99629.94;4967824;29;20023;-70
2021/11/19 10:07:07;;;;;;;41.17;8.18;;;;;;;12.42;78.99;99625.38;4967768;29;20035;-70
2021/11/19 10:10:02;;;;;;;46.03;7.65;;;;;;;12.33;79.30;99641.25;4967833;29;20027;-70
2021/11/19 10:12:42;;;;;;;37.08;5.53;;;;;;;12.30;79.99;99660.41;4954513;29;20041;-70
2021/11/19 10:15:19;;;;;;;50.08;8.00;;;;;;;12.21;80.05;99635.50;4967777;29;20031;-69
2021/11/19 10:17:51;;;;;;;45.47;8.45;;;;;;;12.35;80.14;99658.53;4967513;29;20058;-70
2021/11/19 10:20:24;;;;;;;47.33;8.93;;;;;;;12.38;79.52;99661.06;4967509;29;20404;-70
2021/11/19 10:22:55;;;;;;;37.90;7.47;;;;;;;12.26;79.40;99666.59;4967471;29;20027;-71
2021/11/19 10:25:39;;;;;;;36.17;7.72;;;;;;;12.17;79.52;99678.13;4950213;29;20047;-70
2021/11/19 10:28:10;;;;;;;40.38;6.20;;;;;;;12.05;80.01;99663.66;4967665;29;20027;-70
2021/11/19 10:30:43;;;;;;;41.17;6.68;;;;;;;12.03;79.79;99674.09;4967434;29;20083;-70
2021/11/19 10:33:18;;;;;;;48.75;7.35;;;;;;;11.99;79.96;99661.22;4967479;29;20038;-70
2021/11/19 10:35:56;;;;;;;44.15;7.18;;;;;;;11.94;80.33;99663.94;4967153;29;20031;-69
2021/11/19 10:38:43;;;;;;;35.95;6.18;;;;;;;11.90;80.10;99659.72;4967086;29;20031;-70
2021/11/19 10:41:41;;;;;;;40.05;7.72;;;;;;;11.86;80.23;99645.06;4967230;29;20023;-69
2021/11/19 10:44:25;;;;;;;37.70;6.97;;;;;;;11.81;80.55;99652.13;4966403;28;20023;-69
2021/11/19 10:47:20;;;;;;;31.35;6.13;;;;;;;11.80;80.78;99655.63;4965650;29;20027;-69
2021/11/19 10:49:55;;;;;;;44.53;6.78;;;;;;;11.82;80.42;99653.84;4966900;29;20038;-69
2021/11/19 10:52:46;;;;;;;41.13;6.30;;;;;;;11.81;80.62;99647.78;4965661;29;20468;-69
2021/11/19 10:55:51;;;;;;;43.10;7.20;;;;;;;11.87;80.63;99626.81;4961960;29;20093;-69
2021/11/19 10:58:35;;;;;;;32.55;6.60;;;;;;;11.89;80.80;99627.66;4966941;29;20031;-69
2021/11/19 11:01:03;;;;;;;25.90;4.38;;;;;;;11.89;80.72;99619.84;4949497;29;20031;-69
2021/11/19 11:03:34;;;;;;;32.28;6.45;;;;;;;11.83;80.91;99633.00;4966551;29;20031;-72
2021/11/19 11:06:06;;;;;;;31.73;6.78;;;;;;;11.76;81.23;99627.09;4966946;29;20023;-69
2021/11/19 11:08:35;;;;;;;42.40;6.40;;;;;;;11.65;81.48;99619.59;4966788;29;20028;-69
2021/11/19 11:11:11;;;;;;;24.98;4.53;;;;;;;11.73;81.73;99610.72;4966629;29;20050;-68
2021/11/19 11:13:40;;;;;;;30.45;5.72;;;;;;;11.64;81.92;99620.50;4966590;29;20039;-69
2021/11/19 11:16:17;;;;;;;37.35;5.13;;;;;;;11.60;81.99;99643.97;4966362;29;20038;-70
2021/11/19 11:19:26;;;;;;;45.25;7.57;;;;;;;11.60;81.98;99641.38;4966466;29;20036;-69
2021/11/19 11:21:53;;;;;;;29.70;4.20;;;;;;;11.54;82.15;99637.19;4888075;29;20131;-69
2021/11/19 11:24:27;;;;;;;32.88;5.35;;;;;;;11.58;82.31;99644.00;4888165;29;20037;-69
2021/11/19 11:27:01;;;;;;;25.33;6.60;;;;;;;11.59;81.86;99643.16;4887975;29;20037;-68
2021/11/19 11:29:59;;;;;;;37.60;6.05;;;;;;;11.75;81.66;99635.81;4888002;29;20033;-69
2021/11/19 11:32:42;;;;;;;20.08;5.68;;;;;;;11.78;81.21;99637.47;4867217;29;20037;-69
2021/11/19 11:35:19;;;;;;;39.53;6.10;;;;;;;11.77;81.29;99640.97;4887761;29;20134;-69
2021/11/19 11:38:06;;;;;;;24.85;6.45;;;;;;;11.87;80.96;99611.22;4887844;29;20094;-69
2021/11/19 11:40:50;;;;;;;28.23;5.35;;;;;;;11.90;80.63;99624.13;4887574;29;20040;-69
2021/11/19 11:43:20;;;;;;;14.63;4.22;;;;;;;11.94;80.59;99643.13;4887868;29;20037;-70